New Hope, Mississippi
Current Conditions -  °F | °C
As of 9:15 PM on Friday 19 Dec 2014 (Local Time) from KGTR Reporting Station
Overcast Overcast  
Wind Chill: 37°   Ceiling: 1900
Heat Index: 43°   Visibility: 10mi
Dew Point: 39°   Wind: 9mph
Humidity: 87%   Direction: 350°N
Pressure: 30.19"   Gusts: NA
Location:  33.455°N, 88.5512°W
Report Text: KGTR 200315Z 35008KT 10SM BKN019 BKN060 OVC095 06/04 A3019 RMK AO1
Loading
Personal Weather Stations






























Interactive Weather Map New forecast layout! Learn more

10-Day Weather Forecast

Advertisements
Track Severe Weather on mobile